createdAt,value
2017-08-18T00:02:13.996Z,19.00
2017-08-18T00:04:43.027Z,19.00
2017-08-18T00:07:11.292Z,19.00
2017-08-18T00:09:39.576Z,19.00
2017-08-18T00:12:07.875Z,19.00
2017-08-18T00:14:36.205Z,18.90
2017-08-18T00:17:04.470Z,18.90
2017-08-18T00:19:32.748Z,18.80
2017-08-18T00:22:01.864Z,18.80
2017-08-18T00:24:30.128Z,18.80
2017-08-18T00:27:40.318Z,18.80
2017-08-18T00:30:08.584Z,18.80
2017-08-18T00:32:36.887Z,18.80
2017-08-18T00:35:05.171Z,18.80
2017-08-18T00:37:33.448Z,18.80
2017-08-18T00:40:01.753Z,18.80
2017-08-18T00:42:30.015Z,18.80
2017-08-18T00:44:58.345Z,18.70
2017-08-18T00:47:26.620Z,18.70
2017-08-18T00:49:55.748Z,18.70
2017-08-18T00:52:24.058Z,18.60
2017-08-18T00:54:52.351Z,18.60
2017-08-18T00:57:20.713Z,18.60
2017-08-18T00:59:48.968Z,18.60
2017-08-18T01:02:17.241Z,18.60
2017-08-18T01:04:45.544Z,18.50
2017-08-18T01:07:13.820Z,18.50
2017-08-18T01:09:42.128Z,18.60
2017-08-18T01:12:10.400Z,18.50
2017-08-18T01:14:38.672Z,18.40
2017-08-18T01:17:06.961Z,18.30
2017-08-18T01:22:13.668Z,18.20
2017-08-18T01:24:41.943Z,18.20
2017-08-18T01:27:10.206Z,18.10
2017-08-18T01:32:13.911Z,18.30
2017-08-18T01:34:42.232Z,18.20
2017-08-18T01:37:10.507Z,18.20
2017-08-18T01:39:38.780Z,18.20
2017-08-18T01:42:07.072Z,18.20
2017-08-18T01:44:35.345Z,18.10
2017-08-18T01:47:03.655Z,18.10
2017-08-18T01:49:31.927Z,18.20
2017-08-18T01:52:00.213Z,18.00
2017-08-18T01:54:28.501Z,18.00
2017-08-18T01:56:57.531Z,18.00
2017-08-18T01:59:25.868Z,17.90
2017-08-18T02:01:54.143Z,18.00
2017-08-18T02:04:22.428Z,18.00
2017-08-18T02:06:50.707Z,17.90
2017-08-18T02:09:18.975Z,17.90
2017-08-18T02:11:47.282Z,17.90
2017-08-18T02:14:15.558Z,17.90
2017-08-18T02:16:43.833Z,17.90
2017-08-18T02:19:12.120Z,18.00
2017-08-18T02:21:40.396Z,18.10
2017-08-18T02:24:09.484Z,18.00
2017-08-18T02:26:38.511Z,17.90
2017-08-18T02:29:06.779Z,17.90
2017-08-18T02:31:35.068Z,17.90
2017-08-18T02:34:04.114Z,17.80
2017-08-18T02:36:32.616Z,17.70
2017-08-18T02:39:01.664Z,17.70
2017-08-18T02:41:29.931Z,17.70
2017-08-18T02:43:58.425Z,17.90
2017-08-18T02:46:27.464Z,17.90
2017-08-18T02:48:55.770Z,17.90
2017-08-18T02:51:24.791Z,17.80
2017-08-18T02:53:53.064Z,17.80
2017-08-18T02:56:21.343Z,17.80
2017-08-18T02:58:49.616Z,17.70
2017-08-18T03:01:17.927Z,17.70
2017-08-18T03:03:46.198Z,17.70
2017-08-18T03:06:14.474Z,17.60
2017-08-18T03:08:42.763Z,17.60
2017-08-18T03:11:11.036Z,17.60
2017-08-18T03:13:40.114Z,17.50
2017-08-18T03:16:09.152Z,17.50
2017-08-18T03:18:37.427Z,17.50
2017-08-18T03:21:05.711Z,17.50
2017-08-18T03:23:34.754Z,17.50
2017-08-18T03:26:03.048Z,17.40
2017-08-18T03:28:31.315Z,17.50
2017-08-18T03:31:00.524Z,17.50
2017-08-18T03:33:28.808Z,17.40
2017-08-18T03:35:57.076Z,17.50
2017-08-18T03:38:25.400Z,17.40
2017-08-18T03:40:54.436Z,17.40
2017-08-18T03:43:22.707Z,17.40
2017-08-18T03:45:51.000Z,17.40
2017-08-18T03:48:20.040Z,17.40
2017-08-18T03:50:48.355Z,17.30
2017-08-18T03:53:16.632Z,17.30
2017-08-18T03:55:44.896Z,17.30
2017-08-18T03:58:13.186Z,17.30
2017-08-18T04:00:41.452Z,17.30
2017-08-18T04:03:09.763Z,17.20
2017-08-18T04:05:38.028Z,17.20
2017-08-18T04:08:06.291Z,17.20
2017-08-18T04:10:34.576Z,17.20
2017-08-18T04:13:02.842Z,17.20
2017-08-18T04:15:31.167Z,17.30
2017-08-18T04:17:59.436Z,17.30
2017-08-18T04:20:28.743Z,17.20
2017-08-18T04:22:57.031Z,17.10
2017-08-18T04:25:25.291Z,17.10
2017-08-18T04:27:53.591Z,17.10
2017-08-18T04:30:21.872Z,17.10
2017-08-18T04:32:50.148Z,17.10
2017-08-18T04:35:18.432Z,17.10
2017-08-18T04:37:46.700Z,17.10
2017-08-18T04:40:15.019Z,17.20
2017-08-18T04:42:43.281Z,17.20
2017-08-18T04:45:11.554Z,17.20
2017-08-18T04:47:39.834Z,17.20
2017-08-18T04:50:08.104Z,17.30
2017-08-18T04:52:36.399Z,17.40
2017-08-18T04:55:05.552Z,17.50
2017-08-18T04:57:33.827Z,17.50
2017-08-18T05:00:03.111Z,17.70
2017-08-18T05:02:31.380Z,17.60
2017-08-18T05:05:00.471Z,17.70
2017-08-18T05:07:28.748Z,17.60
2017-08-18T05:09:57.027Z,17.70
2017-08-18T05:12:25.312Z,17.70
2017-08-18T05:14:53.575Z,17.80
2017-08-18T05:17:21.875Z,17.90
2017-08-18T05:19:50.151Z,18.00
2017-08-18T05:22:18.432Z,18.00
2017-08-18T05:24:46.710Z,18.00
2017-08-18T05:27:14.996Z,18.00
2017-08-18T05:29:43.290Z,18.10
2017-08-18T05:32:11.820Z,18.20
2017-08-18T05:34:40.091Z,18.30
2017-08-18T05:37:09.144Z,18.40
2017-08-18T05:39:37.403Z,18.40
2017-08-18T05:42:05.712Z,18.50
2017-08-18T05:44:33.983Z,18.50
2017-08-18T05:47:02.256Z,18.60
2017-08-18T05:49:30.636Z,18.70
2017-08-18T05:51:58.904Z,18.80
2017-08-18T05:57:01.743Z,19.10
2017-08-18T05:59:30.047Z,19.20
2017-08-18T06:01:58.324Z,19.30
2017-08-18T06:04:26.596Z,19.50
2017-08-18T06:06:54.883Z,19.60
2017-08-18T06:09:23.147Z,19.70
2017-08-18T06:11:51.447Z,19.90
2017-08-18T06:14:19.711Z,20.00
2017-08-18T06:16:47.983Z,20.10
2017-08-18T06:19:16.291Z,20.30
2017-08-18T06:21:44.551Z,20.30
2017-08-18T06:24:12.852Z,20.60
2017-08-18T06:26:41.125Z,20.70
2017-08-18T06:29:09.400Z,20.80
2017-08-18T06:31:37.704Z,20.90
2017-08-18T06:34:06.045Z,21.00
2017-08-18T06:36:35.108Z,21.00
2017-08-18T06:39:04.203Z,21.10
2017-08-18T06:41:32.601Z,21.00
2017-08-18T06:44:00.888Z,21.20
2017-08-18T06:46:29.151Z,21.30
2017-08-18T06:48:57.464Z,21.60
2017-08-18T06:51:25.731Z,21.70
2017-08-18T06:53:54.011Z,21.80
2017-08-18T06:56:22.303Z,21.80
2017-08-18T06:58:50.589Z,21.80
2017-08-18T07:01:19.688Z,21.90
2017-08-18T07:03:47.955Z,21.80
2017-08-18T07:06:16.230Z,21.90
2017-08-18T07:08:44.516Z,22.00
2017-08-18T07:11:12.787Z,22.00
2017-08-18T07:13:41.115Z,22.10
2017-08-18T07:16:09.388Z,22.20
2017-08-18T07:18:37.663Z,22.30
2017-08-18T07:21:05.964Z,22.40
2017-08-18T07:23:34.999Z,22.60
2017-08-18T07:26:03.320Z,22.50
2017-08-18T07:28:31.598Z,22.60
2017-08-18T07:30:59.877Z,22.60
2017-08-18T07:33:28.307Z,22.50
2017-08-18T07:35:56.575Z,22.50
2017-08-18T07:38:24.883Z,22.60
2017-08-18T07:40:53.163Z,22.50
2017-08-18T07:43:21.431Z,22.50
2017-08-18T07:45:50.495Z,22.50
2017-08-18T07:48:18.763Z,22.50
2017-08-18T07:50:47.076Z,22.50
2017-08-18T07:53:15.347Z,22.50
2017-08-18T07:55:43.623Z,22.50
2017-08-18T07:58:11.912Z,22.60
2017-08-18T08:00:40.188Z,22.60
2017-08-18T08:03:09.308Z,23.20
2017-08-18T08:05:37.579Z,23.10
2017-08-18T08:08:05.867Z,23.40
2017-08-18T08:10:34.135Z,23.60
2017-08-18T08:13:03.216Z,24.40
2017-08-18T08:15:31.487Z,24.40
2017-08-18T08:18:00.537Z,25.00
2017-08-18T08:20:28.823Z,24.90
2017-08-18T08:22:57.867Z,25.20
2017-08-18T08:25:26.183Z,25.10
2017-08-18T08:27:54.467Z,25.10
2017-08-18T08:30:22.744Z,25.00
2017-08-18T08:32:51.043Z,25.00
2017-08-18T08:35:19.424Z,24.90
2017-08-18T08:37:48.468Z,24.90
2017-08-18T08:40:16.735Z,24.90
2017-08-18T08:42:45.052Z,24.90
2017-08-18T08:45:13.324Z,24.80
2017-08-18T08:47:41.627Z,24.80
2017-08-18T08:50:09.899Z,24.70
2017-08-18T08:52:38.940Z,25.00
2017-08-18T08:55:07.248Z,25.00
2017-08-18T08:57:36.291Z,25.40
2017-08-18T09:00:04.567Z,25.30
2017-08-18T09:02:33.640Z,25.50
2017-08-18T09:05:01.907Z,25.40
2017-08-18T09:07:31.100Z,25.50
2017-08-18T09:10:00.145Z,25.60
2017-08-18T09:12:28.448Z,25.60
2017-08-18T09:14:57.504Z,25.60
2017-08-18T09:17:25.780Z,25.50
2017-08-18T09:19:54.068Z,25.70
2017-08-18T09:22:22.363Z,26.10
2017-08-18T09:24:50.627Z,26.50
2017-08-18T09:27:18.920Z,26.80
2017-08-18T09:29:47.196Z,27.00
2017-08-18T09:32:16.232Z,26.90
2017-08-18T09:34:44.532Z,26.90
2017-08-18T09:37:13.572Z,26.70
2017-08-18T09:39:41.844Z,26.60
2017-08-18T09:42:10.129Z,26.50
2017-08-18T09:44:38.396Z,26.50
2017-08-18T09:47:07.481Z,26.70
2017-08-18T09:49:48.366Z,26.80
2017-08-18T09:52:26.306Z,26.80
2017-08-18T09:55:06.373Z,27.00
2017-08-18T09:57:46.756Z,27.20
2017-08-18T10:00:15.019Z,27.30
2017-08-18T10:02:43.288Z,27.40
2017-08-18T10:05:11.572Z,27.50
2017-08-18T10:07:39.838Z,27.40
2017-08-18T10:10:08.160Z,27.60
2017-08-18T10:12:36.429Z,27.70
2017-08-18T10:15:04.704Z,27.80
2017-08-18T10:17:32.992Z,27.80
2017-08-18T10:20:02.065Z,28.00
2017-08-18T10:22:31.137Z,28.10
2017-08-18T10:24:59.410Z,28.00
2017-08-18T10:27:27.676Z,27.80
2017-08-18T10:29:56.728Z,27.70
2017-08-18T10:32:25.000Z,27.60
2017-08-18T10:34:53.300Z,27.70
2017-08-18T10:37:21.580Z,27.80
2017-08-18T10:39:49.857Z,28.00
2017-08-18T10:42:18.233Z,28.30
2017-08-18T10:44:46.508Z,28.40
2017-08-18T10:47:15.087Z,28.60
2017-08-18T10:49:44.123Z,28.40
2017-08-18T10:52:12.403Z,28.30
2017-08-18T10:54:40.688Z,28.30
2017-08-18T10:57:08.956Z,28.20
2017-08-18T10:59:38.024Z,28.30
2017-08-18T11:02:06.292Z,28.30
2017-08-18T11:04:35.323Z,28.50
2017-08-18T11:07:03.630Z,28.40
2017-08-18T11:09:32.679Z,28.60
2017-08-18T11:12:00.971Z,28.60
2017-08-18T11:14:30.007Z,28.90
2017-08-18T11:16:58.271Z,28.80
2017-08-18T11:19:26.567Z,29.20
2017-08-18T11:21:54.848Z,29.60
2017-08-18T11:24:23.939Z,30.10
2017-08-18T11:26:52.220Z,30.00
2017-08-18T11:29:20.496Z,30.20
2017-08-18T11:31:48.779Z,30.10
2017-08-18T11:34:17.247Z,30.20
2017-08-18T11:36:45.559Z,30.40
2017-08-18T11:39:13.834Z,30.80
2017-08-18T11:41:42.107Z,30.80
2017-08-18T11:44:10.396Z,30.90
2017-08-18T11:46:38.663Z,31.10
2017-08-18T11:49:06.984Z,31.20
2017-08-18T11:51:35.259Z,30.80
2017-08-18T11:54:03.535Z,30.70
2017-08-18T11:56:31.816Z,30.70
2017-08-18T11:59:00.851Z,30.10
2017-08-18T12:01:29.163Z,30.00
2017-08-18T12:03:57.424Z,29.90
2017-08-18T12:06:26.457Z,29.90
2017-08-18T12:08:54.735Z,29.90
2017-08-18T12:11:23.008Z,30.50
2017-08-18T12:13:51.308Z,30.60
2017-08-18T12:16:19.717Z,31.00
2017-08-18T12:18:48.018Z,31.30
2017-08-18T12:21:17.059Z,31.30
2017-08-18T12:23:45.336Z,31.30
2017-08-18T12:26:13.659Z,31.30
2017-08-18T12:28:41.936Z,31.40
2017-08-18T12:31:10.199Z,31.20
2017-08-18T12:33:38.504Z,30.70
2017-08-18T12:36:07.532Z,30.10
2017-08-18T12:38:35.840Z,30.00
2017-08-18T12:41:04.875Z,29.60
2017-08-18T12:43:33.152Z,29.50
2017-08-18T12:46:01.448Z,29.40
2017-08-18T12:48:30.479Z,29.30
2017-08-18T12:50:58.771Z,29.30
2017-08-18T12:53:27.044Z,29.20
2017-08-18T12:55:56.072Z,29.80
2017-08-18T12:58:24.372Z,29.80
2017-08-18T13:00:52.647Z,30.40
2017-08-18T13:03:21.739Z,31.20
2017-08-18T13:05:50.023Z,31.10
2017-08-18T13:08:18.291Z,31.40
2017-08-18T13:10:46.577Z,31.10
2017-08-18T13:13:14.849Z,30.60
2017-08-18T13:15:43.154Z,30.90
2017-08-18T13:18:11.432Z,31.20
2017-08-18T13:20:39.705Z,31.70
2017-08-18T13:23:07.983Z,32.30
2017-08-18T13:25:36.254Z,32.80
2017-08-18T13:28:04.548Z,32.70
2017-08-18T13:30:33.576Z,33.10
2017-08-18T13:33:01.855Z,33.10
2017-08-18T13:35:30.127Z,33.20
2017-08-18T13:37:58.407Z,33.30
2017-08-18T13:40:27.488Z,32.80
2017-08-18T13:42:56.528Z,32.90
2017-08-18T13:45:24.804Z,32.90
2017-08-18T13:47:53.093Z,32.20
2017-08-18T13:50:22.297Z,31.40
2017-08-18T13:52:50.588Z,31.40
2017-08-18T13:55:18.847Z,31.40
2017-08-18T13:57:47.119Z,32.00
2017-08-18T14:00:15.409Z,32.70
2017-08-18T14:02:44.439Z,32.70
2017-08-18T14:05:12.748Z,32.60
2017-08-18T14:07:41.021Z,32.20
2017-08-18T14:10:10.053Z,33.10
2017-08-18T14:12:38.334Z,33.10
2017-08-18T14:15:06.604Z,33.10
2017-08-18T14:17:34.891Z,32.80
2017-08-18T14:20:03.168Z,32.80
2017-08-18T14:22:31.431Z,32.80
2017-08-18T14:25:05.444Z,32.40
2017-08-18T14:27:39.348Z,32.10
2017-08-18T14:30:07.627Z,31.60
2017-08-18T14:32:35.912Z,31.30
2017-08-18T14:35:04.360Z,31.30
2017-08-18T14:37:32.632Z,31.50
2017-08-18T14:40:01.672Z,32.40
2017-08-18T14:42:29.959Z,32.30
2017-08-18T14:44:58.236Z,32.90
2017-08-18T14:47:27.297Z,32.80
2017-08-18T14:49:55.576Z,32.80
2017-08-18T14:52:24.804Z,32.60
2017-08-18T14:54:53.079Z,32.50
2017-08-18T14:57:21.347Z,32.20
2017-08-18T14:59:49.636Z,31.50
2017-08-18T15:02:17.899Z,31.20
2017-08-18T15:04:47.084Z,30.60
2017-08-18T15:07:16.124Z,30.30
2017-08-18T15:09:44.400Z,30.30
2017-08-18T15:12:13.471Z,29.80
2017-08-18T15:14:41.736Z,29.70
2017-08-18T15:17:10.047Z,29.60
2017-08-18T15:19:38.335Z,29.40
2017-08-18T15:22:06.599Z,29.40
2017-08-18T15:24:34.975Z,29.20
2017-08-18T15:27:03.256Z,29.20
2017-08-18T15:29:31.572Z,29.10
2017-08-18T15:31:59.843Z,29.00
2017-08-18T15:34:28.116Z,28.90
2017-08-18T15:36:56.414Z,28.90
2017-08-18T15:39:24.669Z,28.80
2017-08-18T15:41:53.148Z,28.70
2017-08-18T15:44:21.412Z,28.60
2017-08-18T15:46:50.464Z,28.50
2017-08-18T15:49:18.727Z,28.50
2017-08-18T15:51:47.035Z,28.40
2017-08-18T15:54:15.316Z,28.40
2017-08-18T15:56:43.721Z,28.30
2017-08-18T15:59:12.011Z,28.30
2017-08-18T16:01:41.035Z,28.10
2017-08-18T16:04:09.348Z,28.10
2017-08-18T16:06:38.392Z,27.50
2017-08-18T16:09:06.663Z,27.40
2017-08-18T16:11:34.968Z,27.20
2017-08-18T16:14:03.240Z,26.70
2017-08-18T16:16:31.663Z,26.40
2017-08-18T16:19:00.712Z,26.00
2017-08-18T16:21:28.980Z,25.90
2017-08-18T16:23:57.284Z,25.60
2017-08-18T16:26:25.563Z,25.00
2017-08-18T16:28:53.874Z,24.60
2017-08-18T16:31:22.140Z,24.40
2017-08-18T16:33:50.422Z,24.20
2017-08-18T16:36:19.480Z,23.50
2017-08-18T16:38:47.764Z,23.40
2017-08-18T16:41:16.083Z,23.20
2017-08-18T16:43:44.359Z,22.90
2017-08-18T16:46:12.636Z,22.60
2017-08-18T16:48:41.698Z,21.80
2017-08-18T16:51:09.967Z,21.70
2017-08-18T16:53:38.273Z,21.50
2017-08-18T16:56:06.535Z,21.50
2017-08-18T16:58:34.804Z,21.30
2017-08-18T17:01:03.101Z,21.20
2017-08-18T17:03:31.374Z,21.20
2017-08-18T17:06:00.166Z,21.20
2017-08-18T17:08:29.199Z,21.30
2017-08-18T17:10:57.482Z,21.20
2017-08-18T17:13:25.776Z,21.20
2017-08-18T17:15:54.859Z,21.20
2017-08-18T17:18:23.940Z,21.30
2017-08-18T17:20:52.211Z,21.20
2017-08-18T17:23:20.496Z,21.40
2017-08-18T17:25:48.775Z,21.30
2017-08-18T17:28:17.052Z,21.20
2017-08-18T17:30:45.337Z,21.20
2017-08-18T17:33:14.373Z,21.00
2017-08-18T17:35:42.651Z,20.90
2017-08-18T17:38:10.929Z,21.00
2017-08-18T17:40:39.240Z,20.90
2017-08-18T17:43:07.516Z,21.00
2017-08-18T17:45:35.799Z,20.80
2017-08-18T17:48:04.076Z,20.90
2017-08-18T17:50:33.116Z,20.80
2017-08-18T17:53:01.403Z,20.80
2017-08-18T17:55:29.972Z,20.90
2017-08-18T17:57:58.281Z,20.70
2017-08-18T18:00:26.548Z,20.40
2017-08-18T18:02:55.070Z,20.20
2017-08-18T18:05:23.344Z,20.20
2017-08-18T18:07:52.391Z,19.90
2017-08-18T18:10:20.677Z,19.90
2017-08-18T18:12:49.703Z,19.70
2017-08-18T18:15:18.023Z,19.70
2017-08-18T18:17:47.252Z,19.60
2017-08-18T18:20:15.520Z,19.50
2017-08-18T18:22:43.799Z,19.50
2017-08-18T18:25:12.080Z,19.60
2017-08-18T18:27:40.391Z,19.40
2017-08-18T18:30:08.663Z,19.40
2017-08-18T18:32:36.935Z,19.30
2017-08-18T18:35:05.236Z,19.10
2017-08-18T18:37:34.271Z,19.20
2017-08-18T18:40:02.582Z,19.20
2017-08-18T18:42:31.968Z,19.10
2017-08-18T18:45:00.332Z,19.10
2017-08-18T18:47:28.596Z,19.00
2017-08-18T18:49:56.873Z,19.00
2017-08-18T18:52:25.238Z,19.00
2017-08-18T18:54:53.505Z,19.00
2017-08-18T18:57:21.840Z,19.00
2017-08-18T18:59:50.874Z,19.00
2017-08-18T19:02:19.156Z,18.90
2017-08-18T19:04:47.446Z,19.00
2017-08-18T19:07:16.488Z,18.90
2017-08-18T19:09:44.791Z,18.80
2017-08-18T19:12:13.069Z,18.70
2017-08-18T19:14:41.339Z,18.50
2017-08-18T19:17:09.624Z,18.50
2017-08-18T19:19:37.896Z,18.40
2017-08-18T19:22:06.199Z,18.50
2017-08-18T19:24:34.659Z,18.60
2017-08-18T19:27:03.011Z,18.60
2017-08-18T19:29:31.290Z,18.80
2017-08-18T19:31:59.580Z,18.70
2017-08-18T19:34:27.859Z,18.70
2017-08-18T19:36:56.161Z,18.70
2017-08-18T19:39:24.412Z,18.70
2017-08-18T19:41:54.091Z,18.60
2017-08-18T19:44:22.368Z,18.50
2017-08-18T19:46:51.395Z,18.40
2017-08-18T19:49:19.683Z,18.40
2017-08-18T19:51:47.956Z,18.60
2017-08-18T19:54:16.255Z,18.50
2017-08-18T19:56:44.519Z,18.40
2017-08-18T19:59:12.788Z,18.40
2017-08-18T20:01:41.071Z,18.50
2017-08-18T20:04:09.348Z,18.50
2017-08-18T20:06:38.008Z,18.50
2017-08-18T20:09:06.283Z,18.60
2017-08-18T20:11:34.556Z,18.60
2017-08-18T20:14:02.937Z,18.60
2017-08-18T20:16:31.963Z,18.40
2017-08-18T20:19:00.273Z,18.40
2017-08-18T20:21:29.313Z,18.40
2017-08-18T20:23:57.588Z,18.30
2017-08-18T20:26:25.982Z,18.40
2017-08-18T20:28:54.236Z,18.30
2017-08-18T20:31:22.715Z,18.20
2017-08-18T20:33:51.735Z,18.10
2017-08-18T20:36:20.028Z,18.00
2017-08-18T20:38:48.309Z,18.00
2017-08-18T20:41:17.332Z,17.80
2017-08-18T20:43:45.632Z,17.70
2017-08-18T20:46:13.923Z,17.70
2017-08-18T20:48:42.944Z,17.60
2017-08-18T20:51:11.228Z,17.50
2017-08-18T20:53:40.252Z,17.60
2017-08-18T20:56:08.552Z,17.60
2017-08-18T20:58:36.824Z,17.60
2017-08-18T21:01:05.104Z,17.60
2017-08-18T21:03:33.399Z,17.70
2017-08-18T21:06:01.687Z,17.60
2017-08-18T21:08:29.992Z,17.60
2017-08-18T21:10:58.294Z,17.60
2017-08-18T21:13:26.562Z,17.60
2017-08-18T21:15:54.864Z,17.50
2017-08-18T21:18:23.141Z,17.50
2017-08-18T21:20:51.435Z,17.40
2017-08-18T21:23:19.720Z,17.40
2017-08-18T21:25:48.001Z,17.40
2017-08-18T21:28:16.288Z,17.40
2017-08-18T21:30:45.332Z,17.50
2017-08-18T21:33:13.657Z,17.40
2017-08-18T21:35:41.924Z,17.40
2017-08-18T21:38:10.223Z,17.40
2017-08-18T21:40:38.484Z,17.30
2017-08-18T21:43:06.800Z,17.30
2017-08-18T21:45:35.067Z,17.30
2017-08-18T21:48:03.348Z,17.30
2017-08-18T21:50:31.637Z,17.30
2017-08-18T21:52:59.895Z,17.30
2017-08-18T21:55:28.181Z,17.30
2017-08-18T21:57:57.228Z,17.20
2017-08-18T22:00:25.548Z,17.20
2017-08-18T22:02:53.843Z,17.20
2017-08-18T22:05:22.121Z,17.20
2017-08-18T22:07:50.408Z,17.10
2017-08-18T22:10:19.430Z,17.10
2017-08-18T22:12:47.748Z,17.00
2017-08-18T22:15:16.796Z,17.00
2017-08-18T22:17:45.067Z,17.00
2017-08-18T22:20:13.358Z,17.20
2017-08-18T22:22:41.628Z,17.20
2017-08-18T22:25:10.063Z,17.30
2017-08-18T22:27:38.340Z,17.30
2017-08-18T22:30:07.376Z,17.10
2017-08-18T22:32:35.655Z,17.10
2017-08-18T22:35:03.933Z,17.20
2017-08-18T22:37:32.413Z,17.20
2017-08-18T22:40:00.676Z,17.20
2017-08-18T22:42:28.940Z,17.20
2017-08-18T22:44:58.087Z,17.10
2017-08-18T22:47:26.368Z,17.10
2017-08-18T22:49:55.488Z,17.00
2017-08-18T22:52:23.795Z,17.00
2017-08-18T22:54:52.072Z,17.10
2017-08-18T22:57:20.356Z,17.10
2017-08-18T22:59:48.648Z,17.00
2017-08-18T23:02:16.969Z,17.00
2017-08-18T23:04:46.004Z,17.00
2017-08-18T23:07:14.270Z,16.90
2017-08-18T23:09:42.700Z,16.90
2017-08-18T23:12:10.972Z,17.00
2017-08-18T23:14:39.267Z,17.00
2017-08-18T23:17:07.543Z,16.90
2017-08-18T23:19:35.799Z,16.90
2017-08-18T23:22:04.079Z,16.90
2017-08-18T23:24:33.120Z,16.80
2017-08-18T23:27:01.605Z,16.80
2017-08-18T23:29:30.000Z,16.80
2017-08-18T23:31:58.263Z,16.90
2017-08-18T23:34:26.556Z,16.90
2017-08-18T23:36:54.823Z,16.90
2017-08-18T23:39:23.132Z,16.80
2017-08-18T23:41:52.191Z,16.60
2017-08-18T23:44:20.447Z,16.60
2017-08-18T23:46:48.735Z,16.60
2017-08-18T23:49:17.764Z,16.70
2017-08-18T23:51:46.263Z,16.70
2017-08-18T23:54:14.540Z,16.70
2017-08-18T23:56:43.764Z,16.70
2017-08-18T23:59:12.057Z,16.70
